Time;durP1;ratioP1;P1;durP2;ratioP2;P2;SDS_P1;SDS_P2;PMS_P1;PMS_P2;Temp;Humidity;BMP_temperature;BMP_pressure;BME280_temperature;BME280_humidity;BME280_pressure;Samples;Min_cycle;Max_cycle;Signal;HPM_P1;HPM_P2
2022/08/06 00:02:23;;;;;;;19.27;8.85;;;;;;;24.58;42.06;99890.09;5053160;28;20111;-69
2022/08/06 00:04:58;;;;;;;20.42;8.80;;;;;;;24.57;42.29;99890.50;5053130;28;20131;-69
2022/08/06 00:07:25;;;;;;;19.20;8.80;;;;;;;24.56;42.38;99891.72;5053037;28;20551;-69
2022/08/06 00:09:55;;;;;;;20.33;9.23;;;;;;;24.53;42.67;99884.00;5053022;28;20067;-69
2022/08/06 00:12:31;;;;;;;16.42;8.95;;;;;;;24.50;42.60;99890.53;5052765;28;20045;-68
2022/08/06 00:15:03;;;;;;;20.80;8.90;;;;;;;24.50;42.80;99885.66;5052841;28;20103;-69
2022/08/06 00:17:49;;;;;;;15.07;8.10;;;;;;;24.47;43.05;99886.50;5052935;28;20115;-68
2022/08/06 00:20:17;;;;;;;13.98;8.40;;;;;;;24.47;42.97;99885.69;5035676;28;20095;-68
2022/08/06 00:22:52;;;;;;;13.45;8.25;;;;;;;24.47;43.30;99895.03;5033308;28;20076;-68
2022/08/06 00:25:19;;;;;;;19.48;8.40;;;;;;;24.49;42.92;99895.44;5032979;28;20139;-68
2022/08/06 00:27:46;;;;;;;15.68;8.35;;;;;;;24.51;43.03;99890.13;5032637;28;20053;-69
2022/08/06 00:30:18;;;;;;;16.40;7.68;;;;;;;24.50;43.46;99887.69;5033165;28;20053;-69
2022/08/06 00:32:49;;;;;;;14.30;8.73;;;;;;;24.50;43.21;99884.84;5032853;28;20051;-69
2022/08/06 00:35:21;;;;;;;17.58;9.10;;;;;;;24.49;43.37;99888.94;5032816;28;20053;-68
2022/08/06 00:37:54;;;;;;;17.63;9.10;;;;;;;24.44;43.54;99886.53;5032640;28;20041;-68
2022/08/06 00:40:29;;;;;;;13.23;8.30;;;;;;;24.40;43.72;99885.75;5033094;28;20057;-69
2022/08/06 00:43:02;;;;;;;14.57;8.40;;;;;;;24.33;43.91;99891.47;5032732;28;20100;-69
2022/08/06 00:45:35;;;;;;;15.57;9.02;;;;;;;24.30;44.00;99892.31;5032440;28;20059;-68
2022/08/06 00:48:11;;;;;;;15.10;9.20;;;;;;;24.25;44.21;99890.69;5032404;28;20053;-69
2022/08/06 00:50:59;;;;;;;15.13;8.18;;;;;;;24.10;44.68;99891.22;5032786;28;20056;-69
2022/08/06 00:53:26;;;;;;;13.43;8.38;;;;;;;24.01;45.05;99893.72;5032534;28;20053;-69
2022/08/06 00:56:01;;;;;;;15.40;8.80;;;;;;;23.90;45.14;99901.44;5032550;28;20057;-68
2022/08/06 00:58:37;;;;;;;17.55;7.80;;;;;;;23.86;45.58;99898.59;5045239;28;20044;-68
2022/08/06 01:01:10;;;;;;;18.20;8.07;;;;;;;23.89;45.61;99894.94;5052713;28;20056;-69
2022/08/06 01:03:45;;;;;;;13.15;8.25;;;;;;;23.89;45.56;99897.00;5052453;28;20071;-69
2022/08/06 01:06:21;;;;;;;18.83;8.40;;;;;;;23.91;45.61;99898.19;5052466;28;20463;-69
2022/08/06 01:09:09;;;;;;;12.63;7.65;;;;;;;23.94;45.92;99896.53;5038674;28;20136;-68
2022/08/06 01:11:39;;;;;;;12.07;7.75;;;;;;;24.05;45.96;99900.19;5032495;28;20049;-69
2022/08/06 01:14:07;;;;;;;12.90;8.10;;;;;;;24.10;45.98;99894.84;5032284;28;20041;-69
2022/08/06 01:16:42;;;;;;;;;;;;;;;24.04;45.73;99901.41;5033086;28;20064;-68
2022/08/06 01:19:26;;;;;;;13.40;7.72;;;;;;;24.08;45.92;99896.50;5039635;28;19971;-68
2022/08/06 01:22:36;;;;;;;12.85;8.10;;;;;;;24.10;46.19;99906.22;5051903;28;20053;-70
2022/08/06 01:25:20;;;;;;;14.48;7.90;;;;;;;24.11;46.01;99904.22;5052326;28;20045;-68
2022/08/06 01:27:54;;;;;;;14.50;8.57;;;;;;;24.12;46.29;99909.47;5051805;28;20041;-68
2022/08/06 01:30:28;;;;;;;10.63;7.78;;;;;;;24.13;46.34;99904.63;5052353;28;20049;-70
2022/08/06 01:32:58;;;;;;;18.33;7.70;;;;;;;24.08;46.29;99893.66;5056136;28;20056;-69
2022/08/06 01:35:33;;;;;;;12.48;7.47;;;;;;;24.11;46.79;99901.38;5055816;28;20045;-69
2022/08/06 01:38:27;;;;;;;17.52;8.13;;;;;;;24.06;46.83;99901.78;5055625;28;20053;-69
2022/08/06 01:41:00;;;;;;;15.73;8.98;;;;;;;24.08;47.02;99914.38;5055733;28;20045;-69
2022/08/06 01:43:31;;;;;;;17.38;8.10;;;;;;;24.05;47.19;99914.41;5055708;28;20119;-69
2022/08/06 01:46:18;;;;;;;13.00;7.50;;;;;;;24.01;47.12;99913.63;5056184;28;20053;-69
2022/08/06 01:48:45;;;;;;;13.02;7.90;;;;;;;24.00;47.45;99914.81;5055795;28;20056;-69
2022/08/06 01:51:15;;;;;;;14.73;7.90;;;;;;;23.98;47.50;99920.13;5055694;28;20094;-69
2022/08/06 01:54:05;;;;;;;15.82;8.35;;;;;;;23.96;47.42;99909.16;5055290;28;20061;-69
2022/08/06 01:56:36;;;;;;;14.10;8.85;;;;;;;23.96;47.65;99922.56;5055450;28;20099;-70
2022/08/06 01:59:30;;;;;;;21.48;9.25;;;;;;;23.89;47.77;99912.00;5035680;28;20056;-75
2022/08/06 02:02:00;;;;;;;11.80;8.55;;;;;;;23.91;47.69;99920.09;5035487;28;20049;-75
2022/08/06 02:04:36;;;;;;;12.50;8.70;;;;;;;23.87;47.73;99916.47;5035496;28;20141;-75
2022/08/06 02:07:08;;;;;;;14.13;8.70;;;;;;;23.84;48.04;99911.63;5036065;28;20076;-74
2022/08/06 02:09:56;;;;;;;13.32;8.50;;;;;;;23.80;48.09;99920.16;5035559;28;20542;-73
2022/08/06 02:12:29;;;;;;;17.65;9.07;;;;;;;23.82;48.22;99917.72;5035414;28;20124;-75
2022/08/06 02:15:14;;;;;;;16.85;9.63;;;;;;;23.79;48.19;99917.72;5035566;28;20052;-73
2022/08/06 02:17:47;;;;;;;16.02;10.02;;;;;;;23.75;48.57;99912.06;5035656;28;20087;-74
2022/08/06 02:20:35;;;;;;;17.00;9.15;;;;;;;23.74;48.60;99921.00;5035148;28;20536;-75
2022/08/06 02:23:11;;;;;;;23.65;9.82;;;;;;;23.75;48.56;99925.47;5035133;28;20075;-75
2022/08/06 02:25:41;;;;;;;17.17;9.50;;;;;;;23.73;48.79;99925.88;5033841;28;20049;-74
2022/08/06 02:28:10;;;;;;;20.90;8.68;;;;;;;23.71;48.92;99922.63;5033688;28;20049;-75
2022/08/06 02:30:53;;;;;;;13.10;8.65;;;;;;;23.75;48.93;99926.28;5035376;28;20064;-75
2022/08/06 02:33:20;;;;;;;16.05;8.80;;;;;;;23.74;48.85;99921.81;5034965;28;20686;-75
2022/08/06 02:36:24;;;;;;;24.33;9.27;;;;;;;23.77;48.91;99935.19;5034995;28;20560;-74
2022/08/06 02:39:02;;;;;;;18.10;8.77;;;;;;;23.76;48.94;99930.72;5034777;28;20056;-75
2022/08/06 02:41:38;;;;;;;19.38;9.73;;;;;;;23.74;49.44;99926.69;5034784;28;20050;-76
2022/08/06 02:44:20;;;;;;;16.52;8.75;;;;;;;23.70;48.90;99925.88;5033048;28;20049;-74
2022/08/06 02:46:57;;;;;;;18.55;10.25;;;;;;;23.72;49.01;99924.25;5040376;28;20132;-74
2022/08/06 02:49:36;;;;;;;17.00;9.77;;;;;;;23.72;48.87;99923.44;5054908;28;20059;-73
2022/08/06 02:52:13;;;;;;;20.40;9.82;;;;;;;23.71;49.03;99934.00;5054897;28;20052;-74
2022/08/06 02:55:11;;;;;;;17.02;9.32;;;;;;;23.69;49.08;99930.78;5055361;28;20045;-74
2022/08/06 02:58:06;;;;;;;18.30;9.43;;;;;;;23.67;48.96;99926.69;5053879;28;20053;-74
2022/08/06 03:00:42;;;;;;;14.13;9.77;;;;;;;23.67;49.24;99929.53;5034606;28;20077;-69
2022/08/06 03:03:16;;;;;;;17.00;8.75;;;;;;;23.67;49.18;99933.19;5034616;28;20049;-69
2022/08/06 03:06:04;;;;;;;18.63;9.25;;;;;;;23.68;49.34;99923.44;5034624;28;20060;-69
2022/08/06 03:08:35;;;;;;;16.42;9.55;;;;;;;23.73;49.27;99925.88;5042594;28;20048;-68
2022/08/06 03:11:05;;;;;;;19.52;9.20;;;;;;;23.79;49.26;99917.72;5054463;28;20064;-69
2022/08/06 03:13:34;;;;;;;25.10;10.13;;;;;;;23.79;49.20;99929.09;5054201;28;20083;-70
2022/08/06 03:16:03;;;;;;;;;;;;;;;23.74;49.22;99929.53;5054690;28;20132;-69
2022/08/06 03:18:31;;;;;;;20.05;9.40;;;;;;;23.83;49.35;99927.06;5053825;28;19948;-69
2022/08/06 03:20:59;;;;;;;19.95;8.60;;;;;;;23.90;49.08;99929.88;5054041;28;20041;-69
2022/08/06 03:23:29;;;;;;;17.00;9.15;;;;;;;23.97;49.00;99929.84;5053907;28;20075;-69
2022/08/06 03:25:59;;;;;;;12.35;9.38;;;;;;;24.02;49.15;99926.59;5054079;28;20053;-69
2022/08/06 03:28:33;;;;;;;14.73;8.63;;;;;;;24.18;49.15;99929.75;5053804;28;20067;-68
2022/08/06 03:31:03;;;;;;;15.45;8.90;;;;;;;24.23;48.86;99926.47;5053915;28;20508;-69
2022/08/06 03:33:32;;;;;;;17.25;8.95;;;;;;;24.19;49.29;99925.69;5053658;28;20057;-69
2022/08/06 03:36:24;;;;;;;20.92;9.20;;;;;;;24.14;49.17;99923.28;5054287;28;20060;-68
2022/08/06 03:39:05;;;;;;;17.35;9.73;;;;;;;24.18;49.27;99919.19;5053705;28;20052;-69
2022/08/06 03:41:38;;;;;;;18.13;10.10;;;;;;;24.25;49.21;99924.03;5053968;28;20388;-69
2022/08/06 03:44:25;;;;;;;17.60;10.13;;;;;;;24.30;48.89;99926.41;5053445;28;20048;-70
2022/08/06 03:47:07;;;;;;;19.48;10.85;;;;;;;24.33;49.01;99931.28;5051292;28;20508;-70
2022/08/06 03:49:45;;;;;;;23.05;10.23;;;;;;;24.29;49.12;99927.66;5033387;28;20432;-69
2022/08/06 03:52:21;;;;;;;20.30;9.70;;;;;;;24.26;49.28;99923.63;5033564;28;20103;-69
2022/08/06 03:54:52;;;;;;;19.10;10.05;;;;;;;24.29;49.18;99927.66;5032921;28;20103;-69
2022/08/06 03:57:25;;;;;;;22.25;11.00;;;;;;;24.36;49.08;99924.75;5044103;28;20381;-69
2022/08/06 04:00:09;;;;;;;18.42;10.60;;;;;;;24.38;49.11;99923.13;5053031;28;20055;-69
2022/08/06 04:02:39;;;;;;;20.70;9.85;;;;;;;24.43;48.78;99924.72;5053235;28;20048;-69
2022/08/06 04:05:19;;;;;;;21.90;10.48;;;;;;;24.50;48.83;99924.69;5053120;28;20049;-69
2022/08/06 04:07:52;;;;;;;19.27;10.27;;;;;;;24.56;48.55;99928.69;5052903;28;20407;-69
2022/08/06 04:10:50;;;;;;;20.85;10.20;;;;;;;24.58;48.66;99932.75;5053071;28;20132;-69
2022/08/06 04:13:25;;;;;;;15.18;9.70;;;;;;;24.59;48.75;99917.31;5053102;28;20091;-69
2022/08/06 04:16:13;;;;;;;;;;;;;;;24.55;48.56;99927.09;5053593;28;20063;-68
2022/08/06 04:18:56;;;;;;;21.77;9.10;;;;;;;24.65;48.51;99927.03;5052538;28;19931;-69
2022/08/06 04:21:25;;;;;;;14.85;8.95;;;;;;;24.76;48.21;99938.34;5052952;28;20530;-70
2022/08/06 04:24:13;;;;;;;17.10;9.48;;;;;;;24.83;48.42;99932.59;5052613;28;20099;-70
2022/08/06 04:26:44;;;;;;;25.03;10.27;;;;;;;24.90;48.16;99941.09;5052733;28;20554;-68
2022/08/06 04:29:15;;;;;;;16.48;10.60;;;;;;;24.97;48.73;99938.16;5052943;28;20063;-69
2022/08/06 04:31:45;;;;;;;23.45;11.15;;;;;;;25.01;48.43;99936.09;5053087;28;20053;-68
2022/08/06 04:34:34;;;;;;;16.83;10.70;;;;;;;25.04;48.78;99938.09;5052656;28;20102;-69
2022/08/06 04:37:21;;;;;;;17.45;10.68;;;;;;;25.04;48.80;99930.38;5052840;28;20052;-69
2022/08/06 04:39:49;;;;;;;24.52;11.10;;;;;;;25.07;48.55;99935.22;5052757;28;20053;-68
2022/08/06 04:42:17;;;;;;;17.02;10.95;;;;;;;25.09;48.47;99931.97;5052344;28;20106;-68
2022/08/06 04:44:45;;;;;;;29.63;11.48;;;;;;;25.12;48.78;99933.97;5052123;28;20459;-69
2022/08/06 04:47:26;;;;;;;14.93;9.90;;;;;;;25.16;48.48;99923.34;5052724;28;20055;-67
2022/08/06 04:50:10;;;;;;;14.27;9.48;;;;;;;25.26;48.72;99921.63;5052636;28;20051;-68
2022/08/06 04:52:38;;;;;;;21.15;10.50;;;;;;;25.34;48.25;99929.69;5052151;28;20111;-67
2022/08/06 04:55:18;;;;;;;17.35;9.63;;;;;;;25.42;48.23;99931.25;5052134;28;20045;-67
2022/08/06 04:58:04;;;;;;;16.35;9.63;;;;;;;25.45;48.26;99929.59;5042211;28;20461;-67
2022/08/06 05:00:43;;;;;;;20.35;9.20;;;;;;;25.53;47.90;99926.25;5032565;28;20059;-67
2022/08/06 05:03:26;;;;;;;27.55;10.25;;;;;;;25.64;47.86;99928.97;5032334;28;20052;-68
2022/08/06 05:06:22;;;;;;;22.08;9.32;;;;;;;25.76;47.61;99923.56;5034193;28;20054;-67
2022/08/06 05:08:54;;;;;;;21.00;9.68;;;;;;;25.88;47.74;99925.84;5035644;28;20464;-67
2022/08/06 05:11:37;;;;;;;13.85;8.98;;;;;;;25.99;47.40;99928.59;5037093;28;20156;-67
2022/08/06 05:14:40;;;;;;;16.77;8.60;;;;;;;26.09;47.23;99922.75;5036408;28;20077;-67
2022/08/06 05:17:10;;;;;;;32.10;9.82;;;;;;;26.23;47.15;99933.94;5035997;28;20140;-67
2022/08/06 05:19:50;;;;;;;15.13;8.73;;;;;;;26.29;46.74;99923.66;5047470;28;20060;-67
2022/08/06 05:22:18;;;;;;;;;;;;;;;26.32;46.71;99922.81;5056790;28;20049;-68
2022/08/06 05:25:05;;;;;;;14.40;8.27;;;;;;;26.47;46.52;99918.50;5056113;28;19925;-66
2022/08/06 05:27:42;;;;;;;21.17;8.70;;;;;;;26.62;46.16;99924.81;5056164;28;20056;-67
2022/08/06 05:30:29;;;;;;;18.70;8.57;;;;;;;26.83;45.89;99920.84;5055914;28;20512;-66
2022/08/06 05:32:58;;;;;;;15.57;8.80;;;;;;;26.98;45.64;99923.03;5055975;28;20040;-67
2022/08/06 05:35:28;;;;;;;13.73;8.35;;;;;;;27.12;45.10;99924.84;5055883;28;20563;-67
2022/08/06 05:38:15;;;;;;;21.55;7.65;;;;;;;27.38;44.94;99932.56;5055911;28;20061;-67
2022/08/06 05:40:58;;;;;;;15.40;9.20;;;;;;;27.63;44.49;99932.88;5056059;28;20095;-67
2022/08/06 05:43:27;;;;;;;27.25;8.68;;;;;;;27.75;44.46;99923.66;5056096;28;20049;-66
2022/08/06 05:46:17;;;;;;;12.63;8.25;;;;;;;27.91;44.20;99920.88;5056010;28;20049;-68
2022/08/06 05:49:07;;;;;;;15.70;7.93;;;;;;;28.20;43.80;99925.56;5056018;28;20053;-66
2022/08/06 05:52:06;;;;;;;11.50;8.35;;;;;;;28.58;43.16;99922.28;5055968;28;20064;-66
2022/08/06 05:54:39;;;;;;;15.45;8.65;;;;;;;28.73;42.26;99921.50;5055398;28;20049;-67
2022/08/06 05:57:23;;;;;;;16.25;7.28;;;;;;;28.99;42.01;99917.59;5055669;28;20057;-67
2022/08/06 06:00:11;;;;;;;18.48;8.35;;;;;;;29.37;40.89;99921.50;5055427;28;20063;-68
2022/08/06 06:03:01;;;;;;;17.77;8.13;;;;;;;30.40;39.36;99913.66;5055775;28;20057;-68
2022/08/06 06:05:30;;;;;;;22.13;8.15;;;;;;;31.81;36.37;99927.72;5055269;28;20048;-67
2022/08/06 06:08:19;;;;;;;15.05;7.80;;;;;;;31.24;37.21;99928.91;5055079;28;20059;-66
2022/08/06 06:11:07;;;;;;;19.50;8.20;;;;;;;30.73;38.07;99921.56;5055150;28;20049;-66
2022/08/06 06:13:36;;;;;;;14.73;8.48;;;;;;;31.07;37.36;99923.75;5055375;28;20083;-67
2022/08/06 06:16:55;;;;;;;13.97;7.80;;;;;;;30.91;38.02;99912.41;5055412;28;20052;-67
2022/08/06 06:19:33;;;;;;;;;;;;;;;30.83;38.02;99914.72;5046389;28;20342;-67
2022/08/06 06:22:21;;;;;;;23.30;8.38;;;;;;;30.96;37.99;99906.88;5034179;28;20387;-66
2022/08/06 06:25:07;;;;;;;16.98;7.93;;;;;;;31.44;37.11;99915.06;5035023;28;20128;-66
2022/08/06 06:27:46;;;;;;;14.45;8.45;;;;;;;31.59;36.96;99915.38;5035784;28;20060;-64
2022/08/06 06:30:20;;;;;;;17.77;8.48;;;;;;;31.20;37.57;99913.06;5035470;28;20052;-65
2022/08/06 06:33:17;;;;;;;15.30;7.75;;;;;;;30.83;38.06;99911.03;5035014;28;20076;-66
2022/08/06 06:36:18;;;;;;;13.80;7.30;;;;;;;30.70;37.79;99908.13;5035178;28;20049;-64
2022/08/06 06:39:00;;;;;;;21.83;8.05;;;;;;;31.69;36.43;99905.53;5034724;28;20095;-65
2022/08/06 06:41:33;;;;;;;18.95;8.98;;;;;;;31.70;36.02;99912.91;5034230;28;20041;-65
2022/08/06 06:44:24;;;;;;;14.77;8.18;;;;;;;31.49;35.96;99914.47;5034565;28;20041;-66
2022/08/06 06:47:38;;;;;;;14.77;7.95;;;;;;;30.91;37.01;99900.91;5034008;28;20054;-66
2022/08/06 06:50:11;;;;;;;20.80;8.40;;;;;;;30.60;37.66;99911.34;5034793;28;20052;-66
2022/08/06 06:52:46;;;;;;;17.48;7.75;;;;;;;30.32;37.85;99909.38;5034481;28;20416;-66
2022/08/06 06:55:16;;;;;;;13.23;7.60;;;;;;;30.27;37.95;99910.75;5049850;28;20050;-65
2022/08/06 06:58:27;;;;;;;19.10;7.97;;;;;;;30.58;37.34;99896.66;5045326;28;20530;-65
2022/08/06 07:00:59;;;;;;;20.33;8.63;;;;;;;30.79;37.19;99907.47;5053748;28;20508;-65
2022/08/06 07:03:48;;;;;;;19.75;7.57;;;;;;;31.12;36.93;99914.56;5054475;28;20100;-66
2022/08/06 07:06:17;;;;;;;19.75;7.60;;;;;;;31.22;36.57;99911.31;5054425;28;20068;-65
2022/08/06 07:09:06;;;;;;;14.50;7.60;;;;;;;30.88;36.77;99907.59;5041206;28;20057;-66
2022/08/06 07:11:43;;;;;;;10.13;7.10;;;;;;;31.21;36.73;99903.16;5034660;28;20131;-65
2022/08/06 07:14:30;;;;;;;15.03;7.20;;;;;;;31.99;34.91;99910.59;5034316;28;20076;-65
2022/08/06 07:17:01;;;;;;;23.45;7.38;;;;;;;32.50;34.11;99908.25;5034383;28;20409;-64
2022/08/06 07:19:51;;;;;;;18.58;7.63;;;;;;;33.83;32.25;99901.69;5046775;28;20056;-65
2022/08/06 07:22:22;;;;;;;11.60;7.25;;;;;;;37.66;26.61;99905.88;5053967;28;20045;-65
2022/08/06 07:24:58;;;;;;;15.60;6.90;;;;;;;41.38;22.10;99905.22;5054018;28;20041;-65
2022/08/06 07:27:32;;;;;;;20.30;8.15;;;;;;;44.18;18.92;99903.41;5053799;28;20416;-66
2022/08/06 07:30:10;;;;;;;60.03;27.58;;;;;;;46.40;16.93;99900.84;5054476;28;20049;-66
2022/08/06 07:32:38;;;;;;;15.90;6.28;;;;;;;48.16;15.58;99898.13;5053712;28;20056;-66
2022/08/06 07:35:12;;;;;;;20.48;5.82;;;;;;;48.65;14.54;99902.44;5054366;28;20037;-65
2022/08/06 07:37:49;;;;;;;12.30;6.35;;;;;;;48.39;14.55;99901.97;5053486;28;20455;-66
2022/08/06 07:40:23;;;;;;;24.53;6.00;;;;;;;49.77;13.45;99905.97;5054172;28;20419;-67
2022/08/06 07:43:01;;;;;;;19.55;6.00;;;;;;;50.91;12.53;99896.69;5053836;28;20294;-67
2022/08/06 07:45:33;;;;;;;11.50;5.57;;;;;;;51.91;11.66;99907.03;5053258;28;20049;-67
2022/08/06 07:48:27;;;;;;;10.02;6.28;;;;;;;52.71;10.59;99904.22;5053916;28;20503;-67
2022/08/06 07:51:06;;;;;;;10.88;5.32;;;;;;;52.99;10.34;99900.59;5053598;28;20114;-68
2022/08/06 07:53:35;;;;;;;14.32;5.53;;;;;;;53.65;10.13;99897.03;5053187;28;20431;-68
2022/08/06 07:56:24;;;;;;;22.65;10.80;;;;;;;54.20;9.38;99893.16;5052995;28;20045;-67
2022/08/06 07:58:55;;;;;;;10.65;5.68;;;;;;;54.69;9.30;99898.38;5036065;28;20416;-67
2022/08/06 08:01:29;;;;;;;20.85;6.07;;;;;;;55.03;8.75;99898.72;5033158;28;20053;-67
2022/08/06 08:07:04;;;;;;;13.30;5.18;;;;;;;55.94;8.53;99896.28;5033338;28;20045;-68
2022/08/06 08:09:39;;;;;;;16.70;5.95;;;;;;;56.75;7.56;99891.38;5033169;28;20139;-66
2022/08/06 08:12:29;;;;;;;9.90;5.18;;;;;;;56.62;7.71;99883.00;5033258;28;20049;-68
2022/08/06 08:15:05;;;;;;;12.53;5.10;;;;;;;56.54;7.54;99892.22;5033227;28;20401;-68
2022/08/06 08:17:45;;;;;;;12.63;5.72;;;;;;;56.94;7.80;99891.16;5031795;28;20068;-68
2022/08/06 08:20:29;;;;;;;12.32;4.93;;;;;;;57.22;7.44;99898.94;5050620;28;20056;-67
2022/08/06 08:23:04;;;;;;;9.77;6.80;;;;;;;57.33;6.98;99897.41;5052998;28;20083;-67
2022/08/06 08:25:32;;;;;;;19.92;9.68;;;;;;;57.44;7.29;99884.63;5053166;28;20492;-67
2022/08/06 08:28:10;;;;;;;7.05;5.13;;;;;;;57.57;6.97;99893.72;5052791;28;20048;-67
2022/08/06 08:30:45;;;;;;;15.27;5.10;;;;;;;57.79;6.10;99886.09;5052805;28;20563;-67
2022/08/06 08:33:20;;;;;;;7.57;4.60;;;;;;;57.59;7.02;99878.09;5053204;28;20049;-68
2022/08/06 08:35:48;;;;;;;10.13;4.72;;;;;;;57.73;6.39;99888.72;5052885;28;20410;-68
2022/08/06 08:38:31;;;;;;;14.38;4.88;;;;;;;56.64;6.81;99880.19;5052685;28;20139;-69
2022/08/06 08:41:12;;;;;;;12.52;5.00;;;;;;;57.15;7.11;99873.06;5051761;28;20482;-69
2022/08/06 08:43:48;;;;;;;27.90;5.78;;;;;;;57.76;6.86;99886.63;5052527;28;20467;-69
2022/08/06 08:46:27;;;;;;;10.25;5.70;;;;;;;57.78;6.01;99884.53;5052442;28;20044;-69
2022/08/06 08:49:02;;;;;;;21.85;5.03;;;;;;;57.67;6.11;99890.56;5052624;28;20088;-68
2022/08/06 08:51:36;;;;;;;6.78;4.60;;;;;;;57.57;6.80;99887.75;5052602;28;20049;-68
2022/08/06 08:54:13;;;;;;;5.88;3.88;;;;;;;56.37;7.26;99879.84;5051507;28;20053;-67
2022/08/06 08:56:45;;;;;;;12.25;5.00;;;;;;;56.95;6.89;99872.56;5052568;28;20049;-68
2022/08/06 08:59:34;;;;;;;6.18;4.50;;;;;;;57.81;6.45;99859.28;5052425;28;20061;-69
2022/08/06 09:02:23;;;;;;;23.80;5.35;;;;;;;58.75;5.43;99879.16;5052962;28;20064;-68
2022/08/06 09:04:52;;;;;;;15.27;5.10;;;;;;;58.80;6.13;99874.16;5052239;28;20424;-67
2022/08/06 09:07:20;;;;;;;9.10;4.93;;;;;;;58.97;5.32;99861.63;5051954;28;20067;-67
2022/08/06 09:10:01;;;;;;;10.02;4.38;;;;;;;58.98;5.76;99872.19;5052447;28;20072;-68
2022/08/06 09:12:30;;;;;;;6.85;4.78;;;;;;;58.75;5.90;99870.16;5052336;28;20106;-67
2022/08/06 09:15:02;;;;;;;7.80;4.22;;;;;;;58.27;5.64;99847.06;5051981;28;20045;-68
2022/08/06 09:17:30;;;;;;;9.40;4.50;;;;;;;58.87;5.86;99858.03;5052126;28;20064;-67
2022/08/06 09:20:17;;;;;;;8.48;4.13;;;;;;;59.26;4.89;99862.53;5052081;28;20106;-68
2022/08/06 09:22:49;;;;;;;7.95;4.90;;;;;;;59.33;4.94;99861.41;5052011;28;20053;-68
2022/08/06 09:25:37;;;;;;;16.88;5.03;;;;;;;59.54;4.89;99864.06;5052372;28;20056;-68
2022/08/06 09:28:27;;;;;;;11.45;4.05;;;;;;;59.42;5.04;99853.63;5052036;28;20143;-68
2022/08/06 09:31:09;;;;;;;7.50;3.80;;;;;;;58.03;6.05;99857.63;5052185;28;20049;-67
2022/08/06 09:34:04;;;;;;;17.10;5.40;;;;;;;57.47;5.78;99866.09;5051932;28;20069;-69
2022/08/06 09:36:52;;;;;;;;;;;;;;;57.50;5.90;99852.81;5052535;28;20045;-67
2022/08/06 09:39:40;;;;;;;12.15;4.25;;;;;;;58.50;5.83;99852.94;5052264;28;19925;-67
2022/08/06 09:42:40;;;;;;;11.63;4.60;;;;;;;57.87;5.51;99849.88;5051589;28;20053;-68
2022/08/06 09:45:11;;;;;;;6.57;3.85;;;;;;;51.99;8.58;99831.34;5051633;28;20048;-67
2022/08/06 09:47:59;;;;;;;9.77;3.90;;;;;;;47.66;11.59;99835.53;5051881;28;20098;-67
2022/08/06 09:50:40;;;;;;;5.25;3.63;;;;;;;45.19;14.19;99827.81;5051980;28;20049;-66
2022/08/06 09:53:11;;;;;;;12.60;3.97;;;;;;;43.46;15.35;99818.56;5053795;28;20069;-67
2022/08/06 09:55:41;;;;;;;13.15;3.92;;;;;;;42.19;16.97;99820.59;5054783;28;20381;-67
2022/08/06 09:58:11;;;;;;;7.30;4.45;;;;;;;41.10;17.93;99826.47;5055705;28;20087;-68
2022/08/06 10:00:39;;;;;;;7.80;4.53;;;;;;;39.82;19.45;99821.09;5055605;28;20049;-66
2022/08/06 10:03:08;;;;;;;8.50;4.22;;;;;;;38.87;20.42;99830.69;5055325;28;20484;-65
2022/08/06 10:06:04;;;;;;;11.48;4.68;;;;;;;37.69;21.20;99814.03;5055105;28;20129;-66
2022/08/06 10:08:33;;;;;;;12.30;4.65;;;;;;;37.06;21.84;99818.72;5047618;28;20053;-66
2022/08/06 10:11:03;;;;;;;7.35;4.00;;;;;;;36.60;22.60;99824.38;5035766;28;20053;-65
2022/08/06 10:13:34;;;;;;;12.73;4.35;;;;;;;36.14;23.53;99810.91;5035691;28;20137;-65
2022/08/06 10:16:18;;;;;;;13.63;4.47;;;;;;;36.05;23.66;99811.03;5035320;28;20038;-66
2022/08/06 10:18:50;;;;;;;22.00;4.80;;;;;;;36.04;23.76;99813.13;5039395;28;20123;-65
2022/08/06 10:21:25;;;;;;;28.33;5.85;;;;;;;35.91;23.82;99815.50;5055235;28;20055;-66
2022/08/06 10:24:06;;;;;;;17.20;4.75;;;;;;;35.69;24.36;99809.25;5055456;28;20560;-66
2022/08/06 10:26:33;;;;;;;23.70;6.30;;;;;;;35.50;25.09;99802.06;5055136;28;20073;-66
2022/08/06 10:29:04;;;;;;;7.95;4.50;;;;;;;35.47;24.64;99805.94;5055038;28;20103;-65
2022/08/06 10:31:32;;;;;;;9.75;4.53;;;;;;;35.32;24.58;99802.19;5055138;28;20076;-66
2022/08/06 10:34:17;;;;;;;14.13;4.93;;;;;;;35.20;24.73;99793.75;5053764;28;20411;-67
2022/08/06 10:36:52;;;;;;;16.67;6.97;;;;;;;34.98;25.03;99791.19;5054879;28;20052;-65
2022/08/06 10:39:28;;;;;;;16.55;4.68;;;;;;;34.80;25.48;99782.63;5054857;28;20049;-67
2022/08/06 10:42:15;;;;;;;12.93;4.95;;;;;;;34.67;25.75;99782.06;5055295;28;20049;-66
2022/08/06 10:44:50;;;;;;;12.27;5.55;;;;;;;34.54;26.22;99781.47;5054801;28;20059;-65
2022/08/06 10:47:21;;;;;;;12.98;4.95;;;;;;;34.48;25.94;99789.22;5054267;28;20114;-64
2022/08/06 10:50:10;;;;;;;9.20;4.68;;;;;;;34.30;25.98;99766.16;5055287;28;20053;-65
2022/08/06 10:52:57;;;;;;;9.05;4.57;;;;;;;34.08;26.31;99766.44;5054216;28;20079;-66
2022/08/06 10:55:28;;;;;;;7.22;4.30;;;;;;;33.97;26.65;99754.59;5054409;28;20049;-65
2022/08/06 10:58:10;;;;;;;12.18;4.35;;;;;;;33.86;26.60;99759.28;5034915;28;20099;-65
2022/08/06 11:00:40;;;;;;;10.82;5.18;;;;;;;33.73;27.04;99764.41;5034568;28;20505;-65
2022/08/06 11:03:37;;;;;;;5.55;4.43;;;;;;;33.79;27.16;99763.28;5033471;28;20068;-65
2022/08/06 11:06:27;;;;;;;8.18;4.95;;;;;;;33.70;27.51;99762.50;5034694;28;20532;-65
2022/08/06 11:09:20;;;;;;;10.65;4.88;;;;;;;33.66;27.38;99761.88;5034606;28;20057;-66
2022/08/06 11:12:34;;;;;;;11.88;4.43;;;;;;;33.49;26.97;99755.66;5034281;28;20103;-65
2022/08/06 11:15:05;;;;;;;14.98;6.00;;;;;;;33.25;27.29;99755.47;5034412;28;20143;-65
2022/08/06 11:17:43;;;;;;;93.07;40.80;;;;;;;33.27;27.39;99743.47;5034487;28;20095;-65
2022/08/06 11:20:32;;;;;;;15.75;6.75;;;;;;;33.40;27.37;99744.13;5048466;28;20576;-65
2022/08/06 11:23:19;;;;;;;;;;;;;;;33.34;27.38;99746.81;5054495;28;20457;-65
2022/08/06 11:26:07;;;;;;;7.70;4.70;;;;;;;33.41;27.11;99739.94;5052372;28;19947;-65
2022/08/06 11:28:33;;;;;;;9.43;4.82;;;;;;;33.53;27.64;99741.06;5053676;28;20060;-65
2022/08/06 11:31:03;;;;;;;5.93;4.40;;;;;;;33.58;27.67;99743.28;5053910;28;20044;-65
2022/08/06 11:33:32;;;;;;;9.45;4.70;;;;;;;33.55;27.56;99747.94;5054171;28;20048;-65
2022/08/06 11:36:02;;;;;;;8.73;4.55;;;;;;;33.37;27.77;99734.38;5053772;28;20563;-65
2022/08/06 11:38:52;;;;;;;10.75;4.07;;;;;;;33.21;27.89;99730.97;5053681;28;20059;-65
2022/08/06 11:41:27;;;;;;;5.88;4.13;;;;;;;33.02;28.22;99735.16;5045310;28;20117;-65
2022/08/06 11:44:17;;;;;;;6.53;4.53;;;;;;;32.88;28.32;99725.06;5053567;28;20486;-65
2022/08/06 11:47:18;;;;;;;9.95;5.20;;;;;;;32.79;28.80;99719.25;5053395;28;20047;-65
2022/08/06 11:49:59;;;;;;;10.60;4.40;;;;;;;32.73;28.76;99717.47;5053873;28;20568;-65
2022/08/06 11:52:33;;;;;;;12.38;4.93;;;;;;;32.83;28.88;99716.22;5053351;28;20084;-65
2022/08/06 11:55:09;;;;;;;8.85;4.88;;;;;;;32.94;28.40;99717.38;5053990;28;20071;-65
2022/08/06 11:58:20;;;;;;;13.95;4.85;;;;;;;32.96;28.52;99711.94;5053379;28;20041;-65
2022/08/06 12:01:01;;;;;;;11.30;5.00;;;;;;;32.92;28.56;99713.38;5053167;28;20045;-65
2022/08/06 12:03:49;;;;;;;7.60;4.25;;;;;;;32.90;28.20;99702.31;5053209;28;20056;-65
2022/08/06 12:06:20;;;;;;;7.05;4.90;;;;;;;32.83;28.42;99717.00;5053257;28;20045;-73
2022/08/06 12:09:12;;;;;;;6.30;4.68;;;;;;;32.80;28.44;99706.44;5053171;28;20053;-73
2022/08/06 12:12:24;;;;;;;8.27;4.72;;;;;;;32.74;28.60;99714.13;5053166;28;20056;-72
2022/08/06 12:14:55;;;;;;;6.43;4.50;;;;;;;32.67;28.55;99702.09;5052976;28;20098;-72
2022/08/06 12:17:24;;;;;;;7.63;4.28;;;;;;;32.67;28.58;99702.91;5052999;28;20071;-72
2022/08/06 12:20:11;;;;;;;;;;;;;;;32.51;28.80;99693.78;5037229;28;20460;-73
2022/08/06 12:23:02;;;;;;;27.63;11.32;;;;;;;32.48;29.01;99689.78;5032979;28;19932;-73
2022/08/06 12:25:34;;;;;;;10.30;5.53;;;;;;;32.51;28.98;99699.53;5032825;28;20045;-73
2022/08/06 12:28:03;;;;;;;7.82;4.57;;;;;;;32.42;28.51;99691.69;5033017;28;20053;-73